sensor_id;sensor_type;location;lat;lon;timestamp;pressure;altitude;pressure_sealevel;temperature;humidity
10464;BME280;5279;42.048;24.638;2023-08-30T00:01:42;96366.41;;;21.89;73.75
10464;BME280;5279;42.048;24.638;2023-08-30T00:04:10;96368.72;;;21.86;76.07
10464;BME280;5279;42.048;24.638;2023-08-30T00:06:37;96365.47;;;21.84;76.93
10464;BME280;5279;42.048;24.638;2023-08-30T00:09:04;96369.22;;;21.83;78.01
10464;BME280;5279;42.048;24.638;2023-08-30T00:11:31;96361.47;;;21.69;81.94
10464;BME280;5279;42.048;24.638;2023-08-30T00:14:02;96371.00;;;21.77;79.01
10464;BME280;5279;42.048;24.638;2023-08-30T00:16:31;96376.25;;;21.84;79.79
10464;BME280;5279;42.048;24.638;2023-08-30T00:18:59;96376.06;;;21.73;94.92
10464;BME280;5279;42.048;24.638;2023-08-30T00:21:26;96380.97;;;21.60;82.24
10464;BME280;5279;42.048;24.638;2023-08-30T00:23:53;96378.56;;;21.30;86.44
10464;BME280;5279;42.048;24.638;2023-08-30T00:26:21;96393.34;;;20.88;85.75
10464;BME280;5279;42.048;24.638;2023-08-30T00:28:49;96381.41;;;20.84;82.29
10464;BME280;5279;42.048;24.638;2023-08-30T00:31:16;96377.78;;;20.78;79.05
10464;BME280;5279;42.048;24.638;2023-08-30T00:33:44;96377.66;;;20.85;77.68
10464;BME280;5279;42.048;24.638;2023-08-30T00:36:12;96382.69;;;20.81;81.73
10464;BME280;5279;42.048;24.638;2023-08-30T00:38:39;96377.06;;;20.83;77.14
10464;BME280;5279;42.048;24.638;2023-08-30T00:41:06;96376.78;;;20.96;74.41
10464;BME280;5279;42.048;24.638;2023-08-30T00:43:34;96369.03;;;21.11;74.01
10464;BME280;5279;42.048;24.638;2023-08-30T00:46:00;96372.91;;;21.15;73.37
10464;BME280;5279;42.048;24.638;2023-08-30T00:48:28;96374.72;;;21.26;81.88
10464;BME280;5279;42.048;24.638;2023-08-30T00:50:55;96376.16;;;21.17;84.91
10464;BME280;5279;42.048;24.638;2023-08-30T00:53:24;96373.97;;;21.02;83.61
10464;BME280;5279;42.048;24.638;2023-08-30T00:55:51;96366.22;;;21.06;83.38
10464;BME280;5279;42.048;24.638;2023-08-30T00:58:18;96368.81;;;21.12;78.86
10464;BME280;5279;42.048;24.638;2023-08-30T01:00:46;96366.53;;;21.21;80.74
10464;BME280;5279;42.048;24.638;2023-08-30T01:03:13;96366.88;;;21.24;87.03
10464;BME280;5279;42.048;24.638;2023-08-30T01:05:40;96366.44;;;21.16;86.91
10464;BME280;5279;42.048;24.638;2023-08-30T01:08:07;96371.25;;;21.14;85.92
10464;BME280;5279;42.048;24.638;2023-08-30T01:10:47;96386.25;;;21.10;93.86
10464;BME280;5279;42.048;24.638;2023-08-30T01:13:19;96379.09;;;21.15;89.93
10464;BME280;5279;42.048;24.638;2023-08-30T01:15:47;96364.22;;;21.13;86.68
10464;BME280;5279;42.048;24.638;2023-08-30T01:18:18;96369.66;;;21.30;89.42
10464;BME280;5279;42.048;24.638;2023-08-30T01:20:46;96373.06;;;21.25;91.55
10464;BME280;5279;42.048;24.638;2023-08-30T01:23:28;96366.22;;;21.17;94.80
10464;BME280;5279;42.048;24.638;2023-08-30T01:26:07;96374.50;;;21.16;87.54
10464;BME280;5279;42.048;24.638;2023-08-30T01:28:37;96377.31;;;21.21;85.27
10464;BME280;5279;42.048;24.638;2023-08-30T01:31:06;96376.84;;;21.24;82.96
10464;BME280;5279;42.048;24.638;2023-08-30T01:33:34;96381.25;;;21.30;76.77
10464;BME280;5279;42.048;24.638;2023-08-30T01:36:03;96377.69;;;21.41;79.20
10464;BME280;5279;42.048;24.638;2023-08-30T01:38:31;96393.63;;;21.59;76.69
10464;BME280;5279;42.048;24.638;2023-08-30T01:40:59;96386.22;;;21.66;81.00
10464;BME280;5279;42.048;24.638;2023-08-30T01:43:27;96388.66;;;21.68;77.99
10464;BME280;5279;42.048;24.638;2023-08-30T01:45:57;96385.41;;;21.66;76.47
10464;BME280;5279;42.048;24.638;2023-08-30T01:48:27;96382.63;;;21.61;79.65
10464;BME280;5279;42.048;24.638;2023-08-30T01:50:56;96394.94;;;21.57;81.96
10464;BME280;5279;42.048;24.638;2023-08-30T01:53:25;96394.81;;;21.63;86.85
10464;BME280;5279;42.048;24.638;2023-08-30T01:55:54;96396.34;;;21.59;87.77
10464;BME280;5279;42.048;24.638;2023-08-30T01:58:22;96409.81;;;21.59;85.61
10464;BME280;5279;42.048;24.638;2023-08-30T02:00:49;96393.91;;;21.58;86.26
10464;BME280;5279;42.048;24.638;2023-08-30T02:03:18;96391.44;;;21.56;87.46
10464;BME280;5279;42.048;24.638;2023-08-30T02:05:55;96402.50;;;21.43;85.24
10464;BME280;5279;42.048;24.638;2023-08-30T02:08:26;96404.06;;;21.39;85.88
10464;BME280;5279;42.048;24.638;2023-08-30T02:11:02;96387.78;;;21.34;89.35
10464;BME280;5279;42.048;24.638;2023-08-30T02:13:32;96391.06;;;21.36;88.04
10464;BME280;5279;42.048;24.638;2023-08-30T02:16:01;96407.53;;;21.23;88.68
10464;BME280;5279;42.048;24.638;2023-08-30T02:18:30;96394.63;;;21.25;87.48
10464;BME280;5279;42.048;24.638;2023-08-30T02:20:57;96402.22;;;21.28;89.04
10464;BME280;5279;42.048;24.638;2023-08-30T02:23:25;96394.81;;;21.35;86.00
10464;BME280;5279;42.048;24.638;2023-08-30T02:25:54;96402.50;;;21.43;92.75
10464;BME280;5279;42.048;24.638;2023-08-30T02:28:21;96395.16;;;21.39;89.75
10464;BME280;5279;42.048;24.638;2023-08-30T02:30:49;96393.78;;;21.36;92.10
10464;BME280;5279;42.048;24.638;2023-08-30T02:33:17;96393.22;;;20.94;96.23
10464;BME280;5279;42.048;24.638;2023-08-30T02:35:45;96393.72;;;21.08;94.23
10464;BME280;5279;42.048;24.638;2023-08-30T02:38:12;96400.06;;;21.02;93.54
10464;BME280;5279;42.048;24.638;2023-08-30T02:40:39;96396.13;;;20.93;95.52
10464;BME280;5279;42.048;24.638;2023-08-30T02:43:06;96398.50;;;20.78;96.66
10464;BME280;5279;42.048;24.638;2023-08-30T02:45:33;96393.59;;;20.75;96.87
10464;BME280;5279;42.048;24.638;2023-08-30T02:48:00;96405.41;;;20.73;96.56
10464;BME280;5279;42.048;24.638;2023-08-30T02:50:27;96401.09;;;20.73;100.00
10464;BME280;5279;42.048;24.638;2023-08-30T02:52:55;96402.06;;;20.66;100.00
10464;BME280;5279;42.048;24.638;2023-08-30T02:55:22;96410.13;;;20.66;100.00
10464;BME280;5279;42.048;24.638;2023-08-30T02:57:49;96408.84;;;20.57;96.71
10464;BME280;5279;42.048;24.638;2023-08-30T03:00:16;96399.47;;;20.60;93.60
10464;BME280;5279;42.048;24.638;2023-08-30T03:02:43;96411.28;;;20.59;95.45
10464;BME280;5279;42.048;24.638;2023-08-30T03:05:10;96410.38;;;20.53;92.95
10464;BME280;5279;42.048;24.638;2023-08-30T03:07:37;96408.84;;;20.57;83.66
10464;BME280;5279;42.048;24.638;2023-08-30T03:10:07;96413.50;;;20.62;87.76
10464;BME280;5279;42.048;24.638;2023-08-30T03:12:34;96419.81;;;20.67;86.15
10464;BME280;5279;42.048;24.638;2023-08-30T03:15:01;96418.69;;;20.63;84.22
10464;BME280;5279;42.048;24.638;2023-08-30T03:34:51;96437.25;;;21.28;84.33
10464;BME280;5279;42.048;24.638;2023-08-30T03:37:17;96427.44;;;21.22;85.44
10464;BME280;5279;42.048;24.638;2023-08-30T03:39:44;96426.44;;;21.11;86.28
10464;BME280;5279;42.048;24.638;2023-08-30T03:42:11;96429.94;;;21.12;89.09
10464;BME280;5279;42.048;24.638;2023-08-30T03:44:38;96426.78;;;20.92;94.71
10464;BME280;5279;42.048;24.638;2023-08-30T03:47:05;96425.06;;;20.86;98.64
10464;BME280;5279;42.048;24.638;2023-08-30T03:49:32;96424.47;;;20.84;96.16
10464;BME280;5279;42.048;24.638;2023-08-30T03:52:00;96429.16;;;20.77;95.33
10464;BME280;5279;42.048;24.638;2023-08-30T03:54:27;96427.56;;;20.76;94.64
10464;BME280;5279;42.048;24.638;2023-08-30T03:56:54;96434.56;;;20.77;86.79
10464;BME280;5279;42.048;24.638;2023-08-30T03:59:21;96432.13;;;20.75;86.61
10464;BME280;5279;42.048;24.638;2023-08-30T04:01:49;96441.09;;;20.81;89.62
10464;BME280;5279;42.048;24.638;2023-08-30T04:04:16;96443.44;;;20.89;89.17
10464;BME280;5279;42.048;24.638;2023-08-30T04:06:42;96441.53;;;21.01;89.92
10464;BME280;5279;42.048;24.638;2023-08-30T04:09:11;96453.00;;;21.08;89.09
10464;BME280;5279;42.048;24.638;2023-08-30T04:11:37;96451.59;;;21.17;87.70
10464;BME280;5279;42.048;24.638;2023-08-30T04:14:04;96444.19;;;21.24;88.30
10464;BME280;5279;42.048;24.638;2023-08-30T04:16:32;96442.63;;;21.28;89.12
10464;BME280;5279;42.048;24.638;2023-08-30T04:18:58;96448.16;;;21.33;92.56
10464;BME280;5279;42.048;24.638;2023-08-30T04:21:25;96449.41;;;21.42;90.70
10464;BME280;5279;42.048;24.638;2023-08-30T04:23:53;96444.66;;;21.49;90.55
10464;BME280;5279;42.048;24.638;2023-08-30T04:26:21;96448.13;;;21.61;92.46
10464;BME280;5279;42.048;24.638;2023-08-30T04:28:48;96434.84;;;21.71;90.89
10464;BME280;5279;42.048;24.638;2023-08-30T04:31:15;96443.59;;;21.78;87.34
10464;BME280;5279;42.048;24.638;2023-08-30T04:33:42;96448.69;;;21.92;87.31
10464;BME280;5279;42.048;24.638;2023-08-30T04:36:09;96451.84;;;22.00;82.00
10464;BME280;5279;42.048;24.638;2023-08-30T04:38:36;96454.94;;;22.09;77.26
10464;BME280;5279;42.048;24.638;2023-08-30T04:41:03;96461.00;;;22.16;75.21
10464;BME280;5279;42.048;24.638;2023-08-30T04:43:32;96459.03;;;22.28;74.74
10464;BME280;5279;42.048;24.638;2023-08-30T04:45:59;96453.38;;;22.29;80.44
10464;BME280;5279;42.048;24.638;2023-08-30T04:48:27;96462.72;;;22.22;86.11
10464;BME280;5279;42.048;24.638;2023-08-30T04:51:01;96454.75;;;22.32;82.63
10464;BME280;5279;42.048;24.638;2023-08-30T04:53:30;96451.06;;;22.38;80.05
10464;BME280;5279;42.048;24.638;2023-08-30T04:55:58;96449.84;;;22.46;76.83
10464;BME280;5279;42.048;24.638;2023-08-30T04:58:25;96448.44;;;22.60;81.50
10464;BME280;5279;42.048;24.638;2023-08-30T05:00:56;96456.41;;;22.66;80.98
10464;BME280;5279;42.048;24.638;2023-08-30T05:03:23;96440.19;;;22.66;80.02
10464;BME280;5279;42.048;24.638;2023-08-30T05:05:50;96447.03;;;22.74;70.81
10464;BME280;5279;42.048;24.638;2023-08-30T05:08:18;96449.06;;;22.83;73.43
10464;BME280;5279;42.048;24.638;2023-08-30T05:10:45;96450.22;;;22.88;74.25
10464;BME280;5279;42.048;24.638;2023-08-30T05:13:15;96460.06;;;22.99;72.65
10464;BME280;5279;42.048;24.638;2023-08-30T05:15:42;96456.00;;;22.96;74.86
10464;BME280;5279;42.048;24.638;2023-08-30T05:18:11;96456.31;;;23.00;75.70
10464;BME280;5279;42.048;24.638;2023-08-30T05:20:38;96456.94;;;23.07;71.87
10464;BME280;5279;42.048;24.638;2023-08-30T05:23:05;96452.16;;;23.14;75.21
10464;BME280;5279;42.048;24.638;2023-08-30T05:25:32;96462.66;;;23.32;74.72
10464;BME280;5279;42.048;24.638;2023-08-30T05:27:59;96451.91;;;23.37;79.58
10464;BME280;5279;42.048;24.638;2023-08-30T05:30:26;96454.81;;;23.52;79.45
10464;BME280;5279;42.048;24.638;2023-08-30T05:32:53;96459.25;;;23.63;75.48
10464;BME280;5279;42.048;24.638;2023-08-30T05:35:22;96452.31;;;23.72;74.15
10464;BME280;5279;42.048;24.638;2023-08-30T05:37:49;96458.19;;;23.91;76.66
10464;BME280;5279;42.048;24.638;2023-08-30T05:40:17;96469.00;;;24.18;75.90
10464;BME280;5279;42.048;24.638;2023-08-30T05:42:44;96469.63;;;24.25;71.82
10464;BME280;5279;42.048;24.638;2023-08-30T05:45:11;96470.44;;;24.25;69.86
10464;BME280;5279;42.048;24.638;2023-08-30T05:47:39;96473.47;;;24.34;70.27
10464;BME280;5279;42.048;24.638;2023-08-30T05:50:06;96472.13;;;24.36;71.14
10464;BME280;5279;42.048;24.638;2023-08-30T05:52:35;96469.09;;;24.28;72.82
10464;BME280;5279;42.048;24.638;2023-08-30T05:55:07;96477.16;;;24.23;75.72
10464;BME280;5279;42.048;24.638;2023-08-30T05:57:34;96481.47;;;24.19;79.46
10464;BME280;5279;42.048;24.638;2023-08-30T06:00:02;96490.44;;;24.24;76.79
10464;BME280;5279;42.048;24.638;2023-08-30T06:02:30;96492.31;;;24.19;79.62
10464;BME280;5279;42.048;24.638;2023-08-30T06:04:57;96490.28;;;24.09;80.74
10464;BME280;5279;42.048;24.638;2023-08-30T06:07:25;96493.09;;;23.92;79.62
10464;BME280;5279;42.048;24.638;2023-08-30T06:09:54;96491.78;;;23.95;81.26
10464;BME280;5279;42.048;24.638;2023-08-30T06:12:22;96482.50;;;24.13;83.54
10464;BME280;5279;42.048;24.638;2023-08-30T06:14:51;96498.09;;;24.32;81.11
10464;BME280;5279;42.048;24.638;2023-08-30T06:17:18;96481.72;;;24.49;79.81
10464;BME280;5279;42.048;24.638;2023-08-30T06:19:45;96489.22;;;24.74;77.14
10464;BME280;5279;42.048;24.638;2023-08-30T06:22:13;96491.31;;;24.98;75.35
10464;BME280;5279;42.048;24.638;2023-08-30T06:24:40;96500.53;;;25.02;75.53
10464;BME280;5279;42.048;24.638;2023-08-30T06:27:13;96497.41;;;25.26;74.92
10464;BME280;5279;42.048;24.638;2023-08-30T06:29:41;96502.56;;;25.32;72.06
10464;BME280;5279;42.048;24.638;2023-08-30T06:32:08;96497.53;;;25.51;71.33
10464;BME280;5279;42.048;24.638;2023-08-30T06:34:35;96503.03;;;25.76;70.66
10464;BME280;5279;42.048;24.638;2023-08-30T06:37:01;96503.66;;;25.98;69.80
10464;BME280;5279;42.048;24.638;2023-08-30T06:39:32;96508.59;;;26.22;68.33
10464;BME280;5279;42.048;24.638;2023-08-30T06:42:00;96503.44;;;26.20;65.40
10464;BME280;5279;42.048;24.638;2023-08-30T06:44:28;96499.09;;;26.49;66.29
10464;BME280;5279;42.048;24.638;2023-08-30T06:46:55;96512.94;;;26.63;68.91
10464;BME280;5279;42.048;24.638;2023-08-30T06:49:22;96518.09;;;26.70;63.05
10464;BME280;5279;42.048;24.638;2023-08-30T06:51:49;96508.59;;;26.67;59.21
10464;BME280;5279;42.048;24.638;2023-08-30T06:54:16;96522.72;;;26.79;62.27
10464;BME280;5279;42.048;24.638;2023-08-30T06:56:56;96529.25;;;26.93;58.34
10464;BME280;5279;42.048;24.638;2023-08-30T06:59:23;96528.72;;;26.81;57.42
10464;BME280;5279;42.048;24.638;2023-08-30T07:01:51;96518.69;;;26.56;59.23
10464;BME280;5279;42.048;24.638;2023-08-30T07:04:18;96528.19;;;26.44;58.97
10464;BME280;5279;42.048;24.638;2023-08-30T07:06:45;96527.91;;;26.35;59.83
10464;BME280;5279;42.048;24.638;2023-08-30T07:09:12;96529.81;;;26.50;58.59
10464;BME280;5279;42.048;24.638;2023-08-30T07:11:39;96518.94;;;26.70;59.14
10464;BME280;5279;42.048;24.638;2023-08-30T07:14:09;96526.53;;;26.78;58.91
10464;BME280;5279;42.048;24.638;2023-08-30T07:16:36;96539.03;;;26.79;58.53
10464;BME280;5279;42.048;24.638;2023-08-30T07:19:04;96528.19;;;26.74;58.76
10464;BME280;5279;42.048;24.638;2023-08-30T07:21:32;96538.50;;;26.97;59.66
10464;BME280;5279;42.048;24.638;2023-08-30T07:24:01;96542.00;;;27.18;58.60
10464;BME280;5279;42.048;24.638;2023-08-30T07:26:28;96536.31;;;27.14;57.01
10464;BME280;5279;42.048;24.638;2023-08-30T07:28:55;96532.75;;;27.09;58.91
10464;BME280;5279;42.048;24.638;2023-08-30T07:31:22;96537.94;;;27.05;56.23
10464;BME280;5279;42.048;24.638;2023-08-30T07:33:49;96530.06;;;27.14;58.70
10464;BME280;5279;42.048;24.638;2023-08-30T07:36:17;96527.00;;;27.36;58.27
10464;BME280;5279;42.048;24.638;2023-08-30T07:38:44;96516.09;;;27.51;57.25
10464;BME280;5279;42.048;24.638;2023-08-30T07:41:11;96524.34;;;27.85;54.47
10464;BME280;5279;42.048;24.638;2023-08-30T07:43:38;96529.84;;;28.29;55.68
10464;BME280;5279;42.048;24.638;2023-08-30T07:46:05;96534.00;;;28.60;53.86
10464;BME280;5279;42.048;24.638;2023-08-30T07:48:32;96535.25;;;28.39;51.12
10464;BME280;5279;42.048;24.638;2023-08-30T07:50:59;96526.53;;;28.37;52.96
10464;BME280;5279;42.048;24.638;2023-08-30T07:53:28;96523.53;;;28.38;51.66
10464;BME280;5279;42.048;24.638;2023-08-30T07:55:54;96531.19;;;28.31;52.08
10464;BME280;5279;42.048;24.638;2023-08-30T07:58:22;96516.06;;;28.54;52.69
10464;BME280;5279;42.048;24.638;2023-08-30T08:00:50;96526.75;;;28.79;51.80
10464;BME280;5279;42.048;24.638;2023-08-30T08:03:17;96524.28;;;29.11;50.17
10464;BME280;5279;42.048;24.638;2023-08-30T08:05:44;96520.13;;;28.90;49.41
10464;BME280;5279;42.048;24.638;2023-08-30T08:08:11;96514.41;;;29.15;52.00
10464;BME280;5279;42.048;24.638;2023-08-30T08:10:41;96523.84;;;29.28;50.33
10464;BME280;5279;42.048;24.638;2023-08-30T08:13:09;96528.13;;;29.39;50.08
10464;BME280;5279;42.048;24.638;2023-08-30T08:15:36;96528.53;;;29.51;49.42
10464;BME280;5279;42.048;24.638;2023-08-30T08:18:03;96521.34;;;29.32;48.96
10464;BME280;5279;42.048;24.638;2023-08-30T08:20:30;96520.34;;;29.70;50.03
10464;BME280;5279;42.048;24.638;2023-08-30T08:22:57;96525.97;;;30.02;48.03
10464;BME280;5279;42.048;24.638;2023-08-30T08:25:24;96512.38;;;30.16;47.77
10464;BME280;5279;42.048;24.638;2023-08-30T08:27:52;96525.41;;;30.43;45.69
10464;BME280;5279;42.048;24.638;2023-08-30T08:30:19;96515.78;;;30.64;46.47
10464;BME280;5279;42.048;24.638;2023-08-30T08:32:47;96507.16;;;30.70;48.00
10464;BME280;5279;42.048;24.638;2023-08-30T08:35:14;96508.75;;;30.90;45.76
10464;BME280;5279;42.048;24.638;2023-08-30T08:37:42;96512.09;;;30.87;47.78
10464;BME280;5279;42.048;24.638;2023-08-30T08:40:10;96513.13;;;30.91;45.34
10464;BME280;5279;42.048;24.638;2023-08-30T08:42:37;96498.66;;;31.04;43.73
10464;BME280;5279;42.048;24.638;2023-08-30T08:45:07;96491.31;;;31.18;46.48
10464;BME280;5279;42.048;24.638;2023-08-30T08:47:36;96493.66;;;31.38;43.37
10464;BME280;5279;42.048;24.638;2023-08-30T08:50:04;96481.66;;;31.34;45.44
10464;BME280;5279;42.048;24.638;2023-08-30T08:52:31;96493.25;;;31.59;43.27
10464;BME280;5279;42.048;24.638;2023-08-30T08:54:59;96491.00;;;31.74;44.54
10464;BME280;5279;42.048;24.638;2023-08-30T08:57:26;96488.75;;;31.90;42.60
10464;BME280;5279;42.048;24.638;2023-08-30T08:59:56;96486.88;;;32.26;41.49
10464;BME280;5279;42.048;24.638;2023-08-30T09:02:25;96485.81;;;32.36;41.44
10464;BME280;5279;42.048;24.638;2023-08-30T09:04:53;96477.03;;;32.47;41.21
10464;BME280;5279;42.048;24.638;2023-08-30T09:07:24;96478.56;;;32.76;41.21
10464;BME280;5279;42.048;24.638;2023-08-30T09:09:52;96477.34;;;32.68;42.77
10464;BME280;5279;42.048;24.638;2023-08-30T09:12:20;96484.50;;;33.00;41.38
10464;BME280;5279;42.048;24.638;2023-08-30T09:14:53;96473.28;;;33.10;42.02
10464;BME280;5279;42.048;24.638;2023-08-30T09:17:20;96490.00;;;33.00;39.91
10464;BME280;5279;42.048;24.638;2023-08-30T09:19:49;96474.19;;;32.53;40.08
10464;BME280;5279;42.048;24.638;2023-08-30T09:22:16;96474.31;;;32.70;42.01
10464;BME280;5279;42.048;24.638;2023-08-30T09:24:43;96463.84;;;33.03;40.63
10464;BME280;5279;42.048;24.638;2023-08-30T09:27:10;96457.28;;;33.51;40.13
10464;BME280;5279;42.048;24.638;2023-08-30T09:29:36;96459.00;;;33.87;39.92
10464;BME280;5279;42.048;24.638;2023-08-30T09:32:04;96464.00;;;34.96;38.19
10464;BME280;5279;42.048;24.638;2023-08-30T09:34:31;96457.34;;;35.52;35.54
10464;BME280;5279;42.048;24.638;2023-08-30T09:36:59;96456.06;;;36.83;33.19
10464;BME280;5279;42.048;24.638;2023-08-30T09:39:27;96446.06;;;37.23;31.57
10464;BME280;5279;42.048;24.638;2023-08-30T09:41:54;96449.28;;;38.10;32.59
10464;BME280;5279;42.048;24.638;2023-08-30T09:44:22;96436.22;;;38.35;31.46
10464;BME280;5279;42.048;24.638;2023-08-30T09:46:51;96447.34;;;39.37;29.07
10464;BME280;5279;42.048;24.638;2023-08-30T09:49:19;96444.66;;;39.56;29.25
10464;BME280;5279;42.048;24.638;2023-08-30T09:51:47;96454.22;;;40.44;28.07
10464;BME280;5279;42.048;24.638;2023-08-30T09:54:17;96443.44;;;40.97;28.27
10464;BME280;5279;42.048;24.638;2023-08-30T09:56:45;96439.13;;;41.67;26.88
10464;BME280;5279;42.048;24.638;2023-08-30T09:59:14;96447.41;;;41.90;26.93
10464;BME280;5279;42.048;24.638;2023-08-30T10:01:42;96440.34;;;42.52;25.36
10464;BME280;5279;42.048;24.638;2023-08-30T10:04:10;96435.56;;;43.19;24.92
10464;BME280;5279;42.048;24.638;2023-08-30T10:06:38;96435.25;;;43.75;24.92
10464;BME280;5279;42.048;24.638;2023-08-30T10:09:06;96440.56;;;43.03;24.57
10464;BME280;5279;42.048;24.638;2023-08-30T10:11:37;96429.81;;;43.02;24.12
10464;BME280;5279;42.048;24.638;2023-08-30T10:14:04;96432.91;;;43.77;24.18
10464;BME280;5279;42.048;24.638;2023-08-30T10:16:39;96414.06;;;44.22;22.91
10464;BME280;5279;42.048;24.638;2023-08-30T10:19:10;96418.22;;;43.36;24.19
10464;BME280;5279;42.048;24.638;2023-08-30T10:21:37;96429.00;;;43.38;24.05
10464;BME280;5279;42.048;24.638;2023-08-30T10:24:07;96433.91;;;44.10;23.84
10464;BME280;5279;42.048;24.638;2023-08-30T10:26:37;96427.00;;;43.89;23.42
10464;BME280;5279;42.048;24.638;2023-08-30T10:29:08;96419.84;;;42.08;24.44
10464;BME280;5279;42.048;24.638;2023-08-30T10:31:37;96426.03;;;40.23;26.60
10464;BME280;5279;42.048;24.638;2023-08-30T10:34:13;96418.53;;;39.57;28.13
10464;BME280;5279;42.048;24.638;2023-08-30T10:36:40;96423.66;;;40.06;27.61
10464;BME280;5279;42.048;24.638;2023-08-30T10:39:11;96429.25;;;40.63;27.11
10464;BME280;5279;42.048;24.638;2023-08-30T10:41:54;96420.25;;;41.57;26.39
10464;BME280;5279;42.048;24.638;2023-08-30T10:44:22;96422.63;;;42.08;25.15
10464;BME280;5279;42.048;24.638;2023-08-30T10:46:52;96418.19;;;42.03;24.62
10464;BME280;5279;42.048;24.638;2023-08-30T10:49:19;96405.09;;;41.77;24.97
10464;BME280;5279;42.048;24.638;2023-08-30T10:51:54;96412.72;;;42.10;24.33
10464;BME280;5279;42.048;24.638;2023-08-30T10:54:21;96412.66;;;41.77;25.85
10464;BME280;5279;42.048;24.638;2023-08-30T10:56:55;96415.06;;;40.11;27.28
10464;BME280;5279;42.048;24.638;2023-08-30T10:59:24;96412.00;;;39.50;28.72
10464;BME280;5279;42.048;24.638;2023-08-30T11:01:52;96408.22;;;38.24;29.56
10464;BME280;5279;42.048;24.638;2023-08-30T11:04:19;96410.03;;;37.56;30.56
10464;BME280;5279;42.048;24.638;2023-08-30T11:06:48;96404.91;;;36.52;32.44
10464;BME280;5279;42.048;24.638;2023-08-30T11:09:17;96406.44;;;37.07;32.73
10464;BME280;5279;42.048;24.638;2023-08-30T11:11:44;96407.09;;;38.68;30.14
10464;BME280;5279;42.048;24.638;2023-08-30T11:14:13;96404.56;;;39.85;27.70
10464;BME280;5279;42.048;24.638;2023-08-30T11:16:41;96399.78;;;41.42;26.69
10464;BME280;5279;42.048;24.638;2023-08-30T11:19:09;96407.75;;;41.96;25.84
10464;BME280;5279;42.048;24.638;2023-08-30T11:21:37;96399.41;;;42.89;25.12
10464;BME280;5279;42.048;24.638;2023-08-30T11:24:05;96393.78;;;43.74;23.66
10464;BME280;5279;42.048;24.638;2023-08-30T11:26:33;96392.50;;;44.19;22.89
10464;BME280;5279;42.048;24.638;2023-08-30T11:29:04;96382.81;;;44.95;22.48
10464;BME280;5279;42.048;24.638;2023-08-30T11:31:33;96389.31;;;44.20;22.07
10464;BME280;5279;42.048;24.638;2023-08-30T11:34:00;96378.78;;;43.38;22.82
10464;BME280;5279;42.048;24.638;2023-08-30T11:36:28;96373.84;;;43.75;23.06
10464;BME280;5279;42.048;24.638;2023-08-30T11:38:56;96376.91;;;44.18;23.69
10464;BME280;5279;42.048;24.638;2023-08-30T11:41:23;96373.38;;;44.31;22.82
10464;BME280;5279;42.048;24.638;2023-08-30T11:43:51;96371.50;;;43.77;22.75
10464;BME280;5279;42.048;24.638;2023-08-30T11:46:19;96367.56;;;42.24;25.00
10464;BME280;5279;42.048;24.638;2023-08-30T11:48:49;96362.94;;;40.62;26.59
10464;BME280;5279;42.048;24.638;2023-08-30T11:51:18;96356.84;;;39.45;27.59
10464;BME280;5279;42.048;24.638;2023-08-30T11:53:46;96354.91;;;39.29;28.01
10464;BME280;5279;42.048;24.638;2023-08-30T11:56:13;96353.09;;;40.26;27.94
10464;BME280;5279;42.048;24.638;2023-08-30T11:58:40;96341.72;;;41.67;26.49
10464;BME280;5279;42.048;24.638;2023-08-30T12:01:07;96348.69;;;42.40;24.39
10464;BME280;5279;42.048;24.638;2023-08-30T12:03:35;96352.66;;;42.76;24.44
10464;BME280;5279;42.048;24.638;2023-08-30T12:06:09;96351.38;;;43.07;23.76
10464;BME280;5279;42.048;24.638;2023-08-30T12:08:36;96361.47;;;42.81;23.97
10464;BME280;5279;42.048;24.638;2023-08-30T12:11:03;96344.41;;;42.86;23.77
10464;BME280;5279;42.048;24.638;2023-08-30T12:13:32;96342.66;;;43.59;23.01
10464;BME280;5279;42.048;24.638;2023-08-30T12:16:00;96325.44;;;43.53;23.18
10464;BME280;5279;42.048;24.638;2023-08-30T12:18:28;96329.47;;;44.28;22.47
10464;BME280;5279;42.048;24.638;2023-08-30T12:20:55;96329.06;;;44.30;22.32
10464;BME280;5279;42.048;24.638;2023-08-30T12:23:25;96330.75;;;44.52;22.61
10464;BME280;5279;42.048;24.638;2023-08-30T12:25:59;96317.66;;;44.81;22.24
10464;BME280;5279;42.048;24.638;2023-08-30T12:28:27;96321.22;;;44.85;22.20
10464;BME280;5279;42.048;24.638;2023-08-30T12:30:55;96315.63;;;44.71;22.23
10464;BME280;5279;42.048;24.638;2023-08-30T12:33:22;96316.84;;;44.77;22.48
10464;BME280;5279;42.048;24.638;2023-08-30T12:35:51;96316.88;;;44.94;22.06
10464;BME280;5279;42.048;24.638;2023-08-30T12:38:18;96322.19;;;44.06;22.25
10464;BME280;5279;42.048;24.638;2023-08-30T12:40:47;96315.78;;;44.05;23.06
10464;BME280;5279;42.048;24.638;2023-08-30T12:43:15;96309.47;;;44.16;22.84
10464;BME280;5279;42.048;24.638;2023-08-30T12:45:42;96301.34;;;43.86;23.03
10464;BME280;5279;42.048;24.638;2023-08-30T12:48:10;96301.06;;;43.40;23.72
10464;BME280;5279;42.048;24.638;2023-08-30T12:50:38;96305.16;;;43.60;23.33
10464;BME280;5279;42.048;24.638;2023-08-30T12:53:06;96301.28;;;42.73;24.40
10464;BME280;5279;42.048;24.638;2023-08-30T12:55:33;96308.84;;;42.36;24.51
10464;BME280;5279;42.048;24.638;2023-08-30T12:58:02;96292.06;;;41.99;25.25
10464;BME280;5279;42.048;24.638;2023-08-30T13:00:29;96290.09;;;40.49;26.61
10464;BME280;5279;42.048;24.638;2023-08-30T13:02:56;96291.41;;;39.59;27.30
10464;BME280;5279;42.048;24.638;2023-08-30T13:05:23;96287.47;;;39.60;27.83
10464;BME280;5279;42.048;24.638;2023-08-30T13:07:50;96279.59;;;40.01;27.50
10464;BME280;5279;42.048;24.638;2023-08-30T13:10:17;96282.22;;;40.51;27.11
10464;BME280;5279;42.048;24.638;2023-08-30T13:12:44;96283.72;;;39.68;27.88
10464;BME280;5279;42.048;24.638;2023-08-30T13:15:12;96279.00;;;39.03;28.08
10464;BME280;5279;42.048;24.638;2023-08-30T13:17:39;96266.56;;;38.50;29.00
10464;BME280;5279;42.048;24.638;2023-08-30T13:20:06;96268.00;;;37.88;30.33
10464;BME280;5279;42.048;24.638;2023-08-30T13:22:33;96271.88;;;38.27;30.54